sensor_id;sensor_type;location;lat;lon;timestamp;P1;durP1;ratioP1;P2;durP2;ratioP2
39822;SDS011;25499;53.958;10.970;2022-11-15T06:52:01;44.17;;;22.67;;
39822;SDS011;25499;53.958;10.970;2022-11-15T06:54:26;46.22;;;24.48;;
39822;SDS011;25499;53.958;10.970;2022-11-15T06:59:23;44.42;;;23.33;;
39822;SDS011;25499;53.958;10.970;2022-11-15T07:01:49;38.25;;;22.42;;
39822;SDS011;25499;53.958;10.970;2022-11-15T07:04:14;29.00;;;18.23;;
39822;SDS011;25499;53.958;10.970;2022-11-15T07:06:40;40.35;;;22.83;;
39822;SDS011;25499;53.958;10.970;2022-11-15T07:09:05;26.95;;;17.63;;
39822;SDS011;25499;53.958;10.970;2022-11-15T07:11:31;29.05;;;18.05;;
39822;SDS011;25499;53.958;10.970;2022-11-15T07:13:58;29.67;;;17.88;;
39822;SDS011;25499;53.958;10.970;2022-11-15T07:16:25;40.25;;;22.73;;
39822;SDS011;25499;53.958;10.970;2022-11-15T07:18:50;24.05;;;17.77;;
39822;SDS011;25499;53.958;10.970;2022-11-15T07:21:15;37.45;;;22.38;;
39822;SDS011;25499;53.958;10.970;2022-11-15T07:23:41;28.85;;;19.20;;
39822;SDS011;25499;53.958;10.970;2022-11-15T07:26:06;25.50;;;17.73;;
39822;SDS011;25499;53.958;10.970;2022-11-15T07:28:33;26.10;;;17.45;;
39822;SDS011;25499;53.958;10.970;2022-11-15T07:31:02;30.55;;;18.08;;
39822;SDS011;25499;53.958;10.970;2022-11-15T07:33:31;37.38;;;20.88;;
39822;SDS011;25499;53.958;10.970;2022-11-15T07:36:01;23.83;;;17.35;;
39822;SDS011;25499;53.958;10.970;2022-11-15T07:38:28;22.95;;;16.80;;
39822;SDS011;25499;53.958;10.970;2022-11-15T07:40:57;34.65;;;21.17;;
39822;SDS011;25499;53.958;10.970;2022-11-15T07:43:24;26.65;;;17.65;;
39822;SDS011;25499;53.958;10.970;2022-11-15T07:45:49;32.78;;;20.88;;
39822;SDS011;25499;53.958;10.970;2022-11-15T07:48:15;25.30;;;17.20;;
39822;SDS011;25499;53.958;10.970;2022-11-15T07:50:41;22.55;;;16.65;;
39822;SDS011;25499;53.958;10.970;2022-11-15T07:53:07;23.42;;;15.98;;
39822;SDS011;25499;53.958;10.970;2022-11-15T07:55:33;30.00;;;18.73;;
39822;SDS011;25499;53.958;10.970;2022-11-15T07:58:09;27.63;;;16.65;;
39822;SDS011;25499;53.958;10.970;2022-11-15T08:00:35;34.85;;;19.35;;
39822;SDS011;25499;53.958;10.970;2022-11-15T08:03:06;24.30;;;17.05;;
39822;SDS011;25499;53.958;10.970;2022-11-15T08:05:32;22.90;;;16.20;;
39822;SDS011;25499;53.958;10.970;2022-11-15T08:07:58;22.38;;;15.85;;
39822;SDS011;25499;53.958;10.970;2022-11-15T08:10:23;22.83;;;15.75;;
39822;SDS011;25499;53.958;10.970;2022-11-15T08:12:56;22.73;;;16.02;;
39822;SDS011;25499;53.958;10.970;2022-11-15T08:15:26;24.75;;;16.58;;
39822;SDS011;25499;53.958;10.970;2022-11-15T08:17:55;22.40;;;15.88;;
39822;SDS011;25499;53.958;10.970;2022-11-15T08:20:22;24.23;;;16.80;;
39822;SDS011;25499;53.958;10.970;2022-11-15T08:22:48;25.27;;;16.75;;
39822;SDS011;25499;53.958;10.970;2022-11-15T08:25:13;22.45;;;16.40;;
39822;SDS011;25499;53.958;10.970;2022-11-15T08:27:39;24.23;;;16.70;;
39822;SDS011;25499;53.958;10.970;2022-11-15T08:30:04;33.28;;;20.63;;
39822;SDS011;25499;53.958;10.970;2022-11-15T08:32:30;23.88;;;16.50;;
39822;SDS011;25499;53.958;10.970;2022-11-15T08:34:56;24.58;;;16.60;;
39822;SDS011;25499;53.958;10.970;2022-11-15T08:37:22;22.77;;;17.00;;
39822;SDS011;25499;53.958;10.970;2022-11-15T08:39:47;21.45;;;16.10;;
39822;SDS011;25499;53.958;10.970;2022-11-15T08:42:13;22.35;;;16.10;;
39822;SDS011;25499;53.958;10.970;2022-11-15T08:44:39;23.25;;;16.23;;
39822;SDS011;25499;53.958;10.970;2022-11-15T08:47:05;22.23;;;16.02;;
39822;SDS011;25499;53.958;10.970;2022-11-15T08:49:30;21.45;;;15.80;;
39822;SDS011;25499;53.958;10.970;2022-11-15T08:51:56;19.98;;;14.63;;
39822;SDS011;25499;53.958;10.970;2022-11-15T08:54:21;20.77;;;16.25;;
39822;SDS011;25499;53.958;10.970;2022-11-15T08:56:47;20.45;;;15.25;;
39822;SDS011;25499;53.958;10.970;2022-11-15T08:59:12;24.25;;;16.40;;
39822;SDS011;25499;53.958;10.970;2022-11-15T09:01:38;25.10;;;16.42;;
39822;SDS011;25499;53.958;10.970;2022-11-15T09:04:03;20.05;;;15.18;;
39822;SDS011;25499;53.958;10.970;2022-11-15T09:06:29;23.20;;;14.82;;
39822;SDS011;25499;53.958;10.970;2022-11-15T09:08:55;30.88;;;19.30;;
39822;SDS011;25499;53.958;10.970;2022-11-15T09:11:21;20.83;;;15.10;;
39822;SDS011;25499;53.958;10.970;2022-11-15T09:13:48;21.52;;;15.63;;
39822;SDS011;25499;53.958;10.970;2022-11-15T09:16:14;31.58;;;20.13;;
39822;SDS011;25499;53.958;10.970;2022-11-15T09:18:40;23.40;;;15.65;;
39822;SDS011;25499;53.958;10.970;2022-11-15T09:21:07;21.67;;;15.38;;
39822;SDS011;25499;53.958;10.970;2022-11-15T09:23:32;21.35;;;14.65;;
39822;SDS011;25499;53.958;10.970;2022-11-15T09:25:59;19.75;;;14.90;;
39822;SDS011;25499;53.958;10.970;2022-11-15T09:28:27;20.08;;;15.10;;
39822;SDS011;25499;53.958;10.970;2022-11-15T09:31:11;19.05;;;14.15;;
39822;SDS011;25499;53.958;10.970;2022-11-15T09:33:37;20.15;;;13.95;;
39822;SDS011;25499;53.958;10.970;2022-11-15T09:36:03;20.90;;;14.63;;
39822;SDS011;25499;53.958;10.970;2022-11-15T09:38:30;18.90;;;13.68;;
39822;SDS011;25499;53.958;10.970;2022-11-15T09:49:29;18.25;;;13.18;;
39822;SDS011;25499;53.958;10.970;2022-11-15T09:51:56;18.15;;;13.65;;
39822;SDS011;25499;53.958;10.970;2022-11-15T09:56:56;22.35;;;14.20;;
39822;SDS011;25499;53.958;10.970;2022-11-15T10:02:52;19.15;;;13.18;;
39822;SDS011;25499;53.958;10.970;2022-11-15T10:05:46;17.75;;;13.38;;
39822;SDS011;25499;53.958;10.970;2022-11-15T10:10:43;18.60;;;14.02;;
39822;SDS011;25499;53.958;10.970;2022-11-15T10:16:57;18.35;;;13.38;;
39822;SDS011;25499;53.958;10.970;2022-11-15T10:21:57;18.65;;;13.15;;
39822;SDS011;25499;53.958;10.970;2022-11-15T10:24:26;16.58;;;12.63;;
39822;SDS011;25499;53.958;10.970;2022-11-15T10:26:56;17.02;;;12.88;;
39822;SDS011;25499;53.958;10.970;2022-11-15T10:29:22;16.45;;;12.52;;
39822;SDS011;25499;53.958;10.970;2022-11-15T10:31:49;17.90;;;13.10;;
39822;SDS011;25499;53.958;10.970;2022-11-15T10:34:18;18.00;;;13.55;;
39822;SDS011;25499;53.958;10.970;2022-11-15T10:36:46;16.95;;;13.00;;
39822;SDS011;25499;53.958;10.970;2022-11-15T10:39:18;16.20;;;12.80;;
39822;SDS011;25499;53.958;10.970;2022-11-15T10:41:44;19.50;;;12.95;;
39822;SDS011;25499;53.958;10.970;2022-11-15T10:44:30;17.65;;;12.80;;
39822;SDS011;25499;53.958;10.970;2022-11-15T10:49:25;21.40;;;12.50;;
39822;SDS011;25499;53.958;10.970;2022-11-15T10:51:56;15.65;;;12.25;;
39822;SDS011;25499;53.958;10.970;2022-11-15T10:56:54;15.18;;;11.55;;
39822;SDS011;25499;53.958;10.970;2022-11-15T10:59:29;17.30;;;11.95;;
39822;SDS011;25499;53.958;10.970;2022-11-15T11:01:59;19.80;;;12.77;;
39822;SDS011;25499;53.958;10.970;2022-11-15T11:04:24;16.13;;;12.15;;
39822;SDS011;25499;53.958;10.970;2022-11-15T11:06:57;15.73;;;11.80;;
39822;SDS011;25499;53.958;10.970;2022-11-15T11:09:31;14.07;;;11.32;;
39822;SDS011;25499;53.958;10.970;2022-11-15T11:12:02;15.45;;;11.68;;
39822;SDS011;25499;53.958;10.970;2022-11-15T11:14:30;16.95;;;11.65;;
39822;SDS011;25499;53.958;10.970;2022-11-15T11:17:00;14.02;;;11.25;;
39822;SDS011;25499;53.958;10.970;2022-11-15T11:25:33;12.15;;;10.63;;
39822;SDS011;25499;53.958;10.970;2022-11-15T11:36:59;15.75;;;11.20;;
39822;SDS011;25499;53.958;10.970;2022-11-15T11:50:38;18.23;;;11.15;;
39822;SDS011;25499;53.958;10.970;2022-11-15T11:55:52;14.80;;;11.30;;
39822;SDS011;25499;53.958;10.970;2022-11-15T12:00:56;15.68;;;11.15;;
39822;SDS011;25499;53.958;10.970;2022-11-15T12:03:34;14.75;;;10.93;;
39822;SDS011;25499;53.958;10.970;2022-11-15T12:06:23;17.40;;;11.70;;
39822;SDS011;25499;53.958;10.970;2022-11-15T12:17:02;12.95;;;11.00;;
39822;SDS011;25499;53.958;10.970;2022-11-15T12:19:28;14.88;;;11.52;;
39822;SDS011;25499;53.958;10.970;2022-11-15T12:24:22;14.73;;;10.77;;
39822;SDS011;25499;53.958;10.970;2022-11-15T12:29:59;15.80;;;10.25;;
39822;SDS011;25499;53.958;10.970;2022-11-15T12:32:33;12.63;;;9.07;;
39822;SDS011;25499;53.958;10.970;2022-11-15T12:35:03;12.77;;;9.90;;
39822;SDS011;25499;53.958;10.970;2022-11-15T12:37:49;12.77;;;9.93;;
39822;SDS011;25499;53.958;10.970;2022-11-15T12:45:39;12.10;;;9.93;;
39822;SDS011;25499;53.958;10.970;2022-11-15T12:58:27;12.00;;;9.05;;
39822;SDS011;25499;53.958;10.970;2022-11-15T13:01:09;13.45;;;10.00;;
39822;SDS011;25499;53.958;10.970;2022-11-15T13:03:36;16.80;;;9.47;;
39822;SDS011;25499;53.958;10.970;2022-11-15T13:06:41;13.20;;;9.25;;
39822;SDS011;25499;53.958;10.970;2022-11-15T13:11:53;11.30;;;10.05;;
39822;SDS011;25499;53.958;10.970;2022-11-15T13:14:37;12.40;;;9.27;;
39822;SDS011;25499;53.958;10.970;2022-11-15T13:19:45;12.80;;;9.52;;
39822;SDS011;25499;53.958;10.970;2022-11-15T13:22:12;12.80;;;9.93;;
39822;SDS011;25499;53.958;10.970;2022-11-15T13:24:59;12.07;;;9.13;;
39822;SDS011;25499;53.958;10.970;2022-11-15T13:27:26;12.68;;;10.05;;
39822;SDS011;25499;53.958;10.970;2022-11-15T13:32:21;12.85;;;10.10;;
39822;SDS011;25499;53.958;10.970;2022-11-15T13:34:48;13.38;;;10.02;;
39822;SDS011;25499;53.958;10.970;2022-11-15T13:39:46;14.95;;;9.93;;
39822;SDS011;25499;53.958;10.970;2022-11-15T13:42:19;13.70;;;9.52;;
39822;SDS011;25499;53.958;10.970;2022-11-15T13:47:29;11.65;;;10.05;;
39822;SDS011;25499;53.958;10.970;2022-11-15T13:49:57;14.40;;;10.15;;
39822;SDS011;25499;53.958;10.970;2022-11-15T13:52:34;14.15;;;10.60;;
39822;SDS011;25499;53.958;10.970;2022-11-15T13:55:08;14.73;;;10.20;;
39822;SDS011;25499;53.958;10.970;2022-11-15T13:57:42;14.05;;;10.50;;
39822;SDS011;25499;53.958;10.970;2022-11-15T14:02:55;14.10;;;9.38;;
39822;SDS011;25499;53.958;10.970;2022-11-15T14:05:23;14.93;;;9.93;;
39822;SDS011;25499;53.958;10.970;2022-11-15T14:07:53;11.23;;;9.07;;
39822;SDS011;25499;53.958;10.970;2022-11-15T14:10:29;13.25;;;9.18;;
39822;SDS011;25499;53.958;10.970;2022-11-15T14:12:57;12.27;;;10.13;;
39822;SDS011;25499;53.958;10.970;2022-11-15T14:15:36;13.10;;;10.00;;
39822;SDS011;25499;53.958;10.970;2022-11-15T14:18:02;12.32;;;9.13;;
39822;SDS011;25499;53.958;10.970;2022-11-15T14:20:33;12.98;;;10.10;;
39822;SDS011;25499;53.958;10.970;2022-11-15T14:23:03;22.48;;;10.27;;
39822;SDS011;25499;53.958;10.970;2022-11-15T14:25:32;14.40;;;10.30;;
39822;SDS011;25499;53.958;10.970;2022-11-15T14:30:49;12.02;;;9.45;;
39822;SDS011;25499;53.958;10.970;2022-11-15T14:36:11;13.00;;;9.55;;
39822;SDS011;25499;53.958;10.970;2022-11-15T14:38:39;12.20;;;9.65;;
39822;SDS011;25499;53.958;10.970;2022-11-15T14:41:05;12.98;;;8.68;;
39822;SDS011;25499;53.958;10.970;2022-11-15T14:43:31;11.90;;;8.65;;
39822;SDS011;25499;53.958;10.970;2022-11-15T14:45:56;12.00;;;8.88;;
39822;SDS011;25499;53.958;10.970;2022-11-15T14:48:22;14.00;;;9.57;;
39822;SDS011;25499;53.958;10.970;2022-11-15T14:50:48;11.38;;;9.73;;
39822;SDS011;25499;53.958;10.970;2022-11-15T14:53:14;14.05;;;10.27;;
39822;SDS011;25499;53.958;10.970;2022-11-15T14:55:41;17.52;;;11.13;;
39822;SDS011;25499;53.958;10.970;2022-11-15T14:58:07;15.77;;;11.90;;
39822;SDS011;25499;53.958;10.970;2022-11-15T15:00:34;14.63;;;12.30;;
39822;SDS011;25499;53.958;10.970;2022-11-15T15:03:01;15.13;;;12.32;;
39822;SDS011;25499;53.958;10.970;2022-11-15T15:05:34;15.10;;;12.40;;
39822;SDS011;25499;53.958;10.970;2022-11-15T15:08:04;15.95;;;11.73;;
39822;SDS011;25499;53.958;10.970;2022-11-15T15:10:31;19.25;;;13.15;;
39822;SDS011;25499;53.958;10.970;2022-11-15T15:13:02;15.68;;;11.68;;
39822;SDS011;25499;53.958;10.970;2022-11-15T15:15:32;15.02;;;11.88;;
39822;SDS011;25499;53.958;10.970;2022-11-15T15:18:02;17.50;;;13.40;;
39822;SDS011;25499;53.958;10.970;2022-11-15T15:20:30;19.42;;;13.65;;
39822;SDS011;25499;53.958;10.970;2022-11-15T15:22:57;18.45;;;13.32;;
39822;SDS011;25499;53.958;10.970;2022-11-15T15:27:51;19.13;;;13.95;;
39822;SDS011;25499;53.958;10.970;2022-11-15T15:30:17;19.58;;;14.35;;
39822;SDS011;25499;53.958;10.970;2022-11-15T15:32:43;18.27;;;14.02;;
39822;SDS011;25499;53.958;10.970;2022-11-15T15:35:10;19.77;;;14.55;;
39822;SDS011;25499;53.958;10.970;2022-11-15T15:40:49;20.10;;;14.80;;
39822;SDS011;25499;53.958;10.970;2022-11-15T15:43:16;20.80;;;15.00;;
39822;SDS011;25499;53.958;10.970;2022-11-15T15:45:46;21.25;;;15.35;;
39822;SDS011;25499;53.958;10.970;2022-11-15T15:48:16;20.17;;;15.02;;
39822;SDS011;25499;53.958;10.970;2022-11-15T16:01:28;21.52;;;15.20;;
39822;SDS011;25499;53.958;10.970;2022-11-15T16:04:33;20.80;;;15.57;;
39822;SDS011;25499;53.958;10.970;2022-11-15T16:07:46;17.80;;;14.32;;
39822;SDS011;25499;53.958;10.970;2022-11-15T16:11:03;21.30;;;15.90;;
39822;SDS011;25499;53.958;10.970;2022-11-15T16:14:39;22.35;;;16.45;;
39822;SDS011;25499;53.958;10.970;2022-11-15T16:17:54;21.58;;;15.65;;
39822;SDS011;25499;53.958;10.970;2022-11-15T16:20:33;22.85;;;16.75;;
39822;SDS011;25499;53.958;10.970;2022-11-15T16:22:59;21.63;;;16.10;;
39822;SDS011;25499;53.958;10.970;2022-11-15T16:25:25;24.27;;;16.58;;
39822;SDS011;25499;53.958;10.970;2022-11-15T16:27:50;27.52;;;17.13;;
39822;SDS011;25499;53.958;10.970;2022-11-15T16:30:17;27.05;;;17.05;;
39822;SDS011;25499;53.958;10.970;2022-11-15T16:32:44;25.88;;;17.80;;
39822;SDS011;25499;53.958;10.970;2022-11-15T16:35:11;24.42;;;18.33;;
39822;SDS011;25499;53.958;10.970;2022-11-15T16:37:39;26.67;;;18.42;;
39822;SDS011;25499;53.958;10.970;2022-11-15T16:40:28;22.95;;;17.02;;
39822;SDS011;25499;53.958;10.970;2022-11-15T16:42:55;24.63;;;17.15;;
39822;SDS011;25499;53.958;10.970;2022-11-15T16:45:22;26.45;;;17.95;;
39822;SDS011;25499;53.958;10.970;2022-11-15T16:47:48;25.77;;;17.65;;
39822;SDS011;25499;53.958;10.970;2022-11-15T16:52:49;25.20;;;17.95;;
39822;SDS011;25499;53.958;10.970;2022-11-15T16:55:18;26.58;;;18.13;;
39822;SDS011;25499;53.958;10.970;2022-11-15T16:57:44;24.50;;;17.73;;
39822;SDS011;25499;53.958;10.970;2022-11-15T17:00:10;26.92;;;18.40;;
39822;SDS011;25499;53.958;10.970;2022-11-15T17:02:37;23.23;;;17.67;;
39822;SDS011;25499;53.958;10.970;2022-11-15T17:05:03;24.10;;;16.58;;
39822;SDS011;25499;53.958;10.970;2022-11-15T17:07:29;21.45;;;17.67;;
39822;SDS011;25499;53.958;10.970;2022-11-15T17:09:54;24.95;;;17.52;;
39822;SDS011;25499;53.958;10.970;2022-11-15T17:12:20;24.38;;;17.77;;
39822;SDS011;25499;53.958;10.970;2022-11-15T17:14:52;24.17;;;18.27;;
39822;SDS011;25499;53.958;10.970;2022-11-15T17:17:19;23.98;;;18.17;;
39822;SDS011;25499;53.958;10.970;2022-11-15T17:19:45;27.38;;;17.15;;
39822;SDS011;25499;53.958;10.970;2022-11-15T17:22:11;26.63;;;18.45;;
39822;SDS011;25499;53.958;10.970;2022-11-15T17:24:36;26.23;;;18.38;;
39822;SDS011;25499;53.958;10.970;2022-11-15T17:27:01;24.38;;;17.98;;
39822;SDS011;25499;53.958;10.970;2022-11-15T17:29:27;27.63;;;18.55;;
39822;SDS011;25499;53.958;10.970;2022-11-15T17:31:54;24.77;;;18.48;;
39822;SDS011;25499;53.958;10.970;2022-11-15T17:34:19;27.30;;;18.52;;
39822;SDS011;25499;53.958;10.970;2022-11-15T17:36:45;24.98;;;18.45;;
39822;SDS011;25499;53.958;10.970;2022-11-15T17:39:11;25.52;;;19.17;;
39822;SDS011;25499;53.958;10.970;2022-11-15T17:41:37;25.88;;;19.00;;
39822;SDS011;25499;53.958;10.970;2022-11-15T17:44:02;29.67;;;19.50;;
39822;SDS011;25499;53.958;10.970;2022-11-15T17:46:28;26.55;;;19.60;;
39822;SDS011;25499;53.958;10.970;2022-11-15T17:48:53;27.15;;;18.23;;
39822;SDS011;25499;53.958;10.970;2022-11-15T17:51:20;28.08;;;18.35;;
39822;SDS011;25499;53.958;10.970;2022-11-15T17:53:48;26.77;;;19.40;;
39822;SDS011;25499;53.958;10.970;2022-11-15T17:56:18;27.58;;;19.83;;
39822;SDS011;25499;53.958;10.970;2022-11-15T17:58:48;26.25;;;19.73;;
39822;SDS011;25499;53.958;10.970;2022-11-15T18:03:48;28.00;;;20.33;;
39822;SDS011;25499;53.958;10.970;2022-11-15T18:06:15;27.55;;;19.52;;
39822;SDS011;25499;53.958;10.970;2022-11-15T18:08:41;41.53;;;25.25;;
39822;SDS011;25499;53.958;10.970;2022-11-15T18:11:10;29.23;;;18.67;;
39822;SDS011;25499;53.958;10.970;2022-11-15T18:13:37;28.73;;;20.30;;
39822;SDS011;25499;53.958;10.970;2022-11-15T18:16:04;30.50;;;19.63;;
39822;SDS011;25499;53.958;10.970;2022-11-15T18:18:31;30.23;;;20.15;;
39822;SDS011;25499;53.958;10.970;2022-11-15T18:21:01;29.80;;;19.10;;
39822;SDS011;25499;53.958;10.970;2022-11-15T18:23:27;26.02;;;19.48;;
39822;SDS011;25499;53.958;10.970;2022-11-15T18:25:53;30.60;;;19.17;;
39822;SDS011;25499;53.958;10.970;2022-11-15T18:28:19;27.65;;;19.45;;
39822;SDS011;25499;53.958;10.970;2022-11-15T18:30:44;28.50;;;19.58;;
39822;SDS011;25499;53.958;10.970;2022-11-15T18:33:10;36.67;;;23.45;;
39822;SDS011;25499;53.958;10.970;2022-11-15T18:35:35;28.08;;;20.05;;
39822;SDS011;25499;53.958;10.970;2022-11-15T18:38:00;25.05;;;18.30;;
39822;SDS011;25499;53.958;10.970;2022-11-15T18:40:26;27.27;;;19.00;;
39822;SDS011;25499;53.958;10.970;2022-11-15T18:42:54;27.92;;;18.55;;
39822;SDS011;25499;53.958;10.970;2022-11-15T18:45:19;27.02;;;19.50;;
39822;SDS011;25499;53.958;10.970;2022-11-15T18:47:45;28.10;;;18.83;;
39822;SDS011;25499;53.958;10.970;2022-11-15T18:50:10;26.75;;;18.92;;
39822;SDS011;25499;53.958;10.970;2022-11-15T18:52:36;27.10;;;19.08;;
39822;SDS011;25499;53.958;10.970;2022-11-15T18:55:01;25.25;;;18.63;;
39822;SDS011;25499;53.958;10.970;2022-11-15T18:57:27;38.05;;;22.85;;
39822;SDS011;25499;53.958;10.970;2022-11-15T18:59:52;24.83;;;17.75;;
39822;SDS011;25499;53.958;10.970;2022-11-15T19:02:17;28.33;;;18.52;;
39822;SDS011;25499;53.958;10.970;2022-11-15T19:04:43;23.85;;;17.40;;
39822;SDS011;25499;53.958;10.970;2022-11-15T19:07:08;29.67;;;18.60;;
39822;SDS011;25499;53.958;10.970;2022-11-15T19:09:33;30.52;;;19.00;;
39822;SDS011;25499;53.958;10.970;2022-11-15T19:11:59;26.38;;;18.75;;
39822;SDS011;25499;53.958;10.970;2022-11-15T19:14:25;28.67;;;18.38;;
39822;SDS011;25499;53.958;10.970;2022-11-15T19:16:51;28.73;;;18.00;;
39822;SDS011;25499;53.958;10.970;2022-11-15T19:19:19;24.15;;;16.35;;
39822;SDS011;25499;53.958;10.970;2022-11-15T19:21:49;21.83;;;13.70;;
39822;SDS011;25499;53.958;10.970;2022-11-15T19:24:14;26.90;;;17.95;;
39822;SDS011;25499;53.958;10.970;2022-11-15T19:26:40;24.33;;;16.52;;
39822;SDS011;25499;53.958;10.970;2022-11-15T19:29:06;26.88;;;18.55;;
39822;SDS011;25499;53.958;10.970;2022-11-15T19:31:37;37.50;;;21.05;;
39822;SDS011;25499;53.958;10.970;2022-11-15T19:34:03;29.58;;;18.95;;
39822;SDS011;25499;53.958;10.970;2022-11-15T19:36:30;27.42;;;19.10;;
39822;SDS011;25499;53.958;10.970;2022-11-15T19:38:58;28.50;;;19.60;;
39822;SDS011;25499;53.958;10.970;2022-11-15T19:41:28;28.58;;;18.50;;
39822;SDS011;25499;53.958;10.970;2022-11-15T19:43:54;27.83;;;19.45;;
39822;SDS011;25499;53.958;10.970;2022-11-15T19:46:20;36.42;;;22.27;;
39822;SDS011;25499;53.958;10.970;2022-11-15T19:48:47;26.15;;;17.65;;
39822;SDS011;25499;53.958;10.970;2022-11-15T19:51:15;35.65;;;21.63;;
39822;SDS011;25499;53.958;10.970;2022-11-15T19:53:50;28.20;;;18.50;;
39822;SDS011;25499;53.958;10.970;2022-11-15T19:56:17;29.40;;;18.02;;
39822;SDS011;25499;53.958;10.970;2022-11-15T19:58:44;28.50;;;19.13;;
39822;SDS011;25499;53.958;10.970;2022-11-15T20:01:17;28.10;;;18.50;;
39822;SDS011;25499;53.958;10.970;2022-11-15T20:03:44;27.25;;;18.60;;
39822;SDS011;25499;53.958;10.970;2022-11-15T20:06:12;36.63;;;21.92;;
39822;SDS011;25499;53.958;10.970;2022-11-15T20:08:42;29.27;;;19.48;;
39822;SDS011;25499;53.958;10.970;2022-11-15T20:11:09;31.30;;;18.45;;
39822;SDS011;25499;53.958;10.970;2022-11-15T20:13:36;27.33;;;18.02;;
39822;SDS011;25499;53.958;10.970;2022-11-15T20:16:02;29.27;;;18.95;;
39822;SDS011;25499;53.958;10.970;2022-11-15T20:18:28;27.25;;;18.70;;
39822;SDS011;25499;53.958;10.970;2022-11-15T20:20:54;29.80;;;19.75;;
39822;SDS011;25499;53.958;10.970;2022-11-15T20:23:26;28.73;;;19.10;;
39822;SDS011;25499;53.958;10.970;2022-11-15T20:25:52;29.95;;;19.13;;
39822;SDS011;25499;53.958;10.970;2022-11-15T20:28:19;43.95;;;24.08;;
39822;SDS011;25499;53.958;10.970;2022-11-15T20:30:46;30.38;;;18.50;;
39822;SDS011;25499;53.958;10.970;2022-11-15T20:33:12;29.90;;;19.02;;
39822;SDS011;25499;53.958;10.970;2022-11-15T20:35:38;30.70;;;19.30;;
39822;SDS011;25499;53.958;10.970;2022-11-15T20:38:05;30.25;;;19.55;;
39822;SDS011;25499;53.958;10.970;2022-11-15T20:40:31;43.35;;;23.52;;
39822;SDS011;25499;53.958;10.970;2022-11-15T20:42:57;31.98;;;18.58;;
39822;SDS011;25499;53.958;10.970;2022-11-15T20:45:22;29.17;;;18.65;;
39822;SDS011;25499;53.958;10.970;2022-11-15T20:47:48;29.77;;;17.88;;
39822;SDS011;25499;53.958;10.970;2022-11-15T20:50:14;37.47;;;19.77;;
39822;SDS011;25499;53.958;10.970;2022-11-15T20:52:39;27.48;;;17.70;;
39822;SDS011;25499;53.958;10.970;2022-11-15T20:55:05;41.40;;;21.58;;
39822;SDS011;25499;53.958;10.970;2022-11-15T20:57:32;27.63;;;17.92;;
39822;SDS011;25499;53.958;10.970;2022-11-15T20:59:58;30.23;;;18.35;;
39822;SDS011;25499;53.958;10.970;2022-11-15T21:02:23;30.58;;;19.73;;
39822;SDS011;25499;53.958;10.970;2022-11-15T21:04:48;27.88;;;15.82;;
39822;SDS011;25499;53.958;10.970;2022-11-15T21:07:14;30.20;;;15.80;;
39822;SDS011;25499;53.958;10.970;2022-11-15T21:09:39;30.88;;;18.58;;
